sensor_id;sensor_type;location;lat;lon;timestamp;P1;durP1;ratioP1;P2;durP2;ratioP2
31083;SDS011;36333;51.382;0.016;2022-12-18T00:00:02;132.30;;;33.53;;
31083;SDS011;36333;51.382;0.016;2022-12-18T00:02:39;138.23;;;33.78;;
31083;SDS011;36333;51.382;0.016;2022-12-18T00:05:07;132.80;;;33.42;;
31083;SDS011;36333;51.382;0.016;2022-12-18T00:07:38;139.23;;;33.70;;
31083;SDS011;36333;51.382;0.016;2022-12-18T00:10:06;170.55;;;37.25;;
31083;SDS011;36333;51.382;0.016;2022-12-18T00:12:34;166.70;;;39.17;;
31083;SDS011;36333;51.382;0.016;2022-12-18T00:15:05;162.20;;;39.85;;
31083;SDS011;36333;51.382;0.016;2022-12-18T00:17:33;153.98;;;38.05;;
31083;SDS011;36333;51.382;0.016;2022-12-18T00:20:00;150.57;;;36.97;;
31083;SDS011;36333;51.382;0.016;2022-12-18T00:22:28;149.75;;;37.85;;
31083;SDS011;36333;51.382;0.016;2022-12-18T00:24:56;165.48;;;38.67;;
31083;SDS011;36333;51.382;0.016;2022-12-18T00:27:23;168.07;;;40.42;;
31083;SDS011;36333;51.382;0.016;2022-12-18T00:32:21;126.57;;;34.33;;
31083;SDS011;36333;51.382;0.016;2022-12-18T00:34:49;141.23;;;34.67;;
31083;SDS011;36333;51.382;0.016;2022-12-18T00:37:16;143.05;;;34.75;;
31083;SDS011;36333;51.382;0.016;2022-12-18T00:39:53;145.70;;;34.47;;
31083;SDS011;36333;51.382;0.016;2022-12-18T00:42:20;122.72;;;32.00;;
31083;SDS011;36333;51.382;0.016;2022-12-18T00:45:07;135.15;;;32.75;;
31083;SDS011;36333;51.382;0.016;2022-12-18T00:47:39;127.50;;;32.05;;
31083;SDS011;36333;51.382;0.016;2022-12-18T00:50:07;146.88;;;34.17;;
31083;SDS011;36333;51.382;0.016;2022-12-18T00:52:35;133.18;;;32.53;;
31083;SDS011;36333;51.382;0.016;2022-12-18T00:55:02;138.07;;;33.03;;
31083;SDS011;36333;51.382;0.016;2022-12-18T00:57:32;136.68;;;32.40;;
31083;SDS011;36333;51.382;0.016;2022-12-18T01:00:00;141.18;;;33.08;;
31083;SDS011;36333;51.382;0.016;2022-12-18T01:02:28;132.05;;;30.58;;
31083;SDS011;36333;51.382;0.016;2022-12-18T01:04:56;129.13;;;31.52;;
31083;SDS011;36333;51.382;0.016;2022-12-18T01:07:24;134.70;;;30.90;;
31083;SDS011;36333;51.382;0.016;2022-12-18T01:09:52;131.80;;;30.20;;
31083;SDS011;36333;51.382;0.016;2022-12-18T01:12:19;147.63;;;33.75;;
31083;SDS011;36333;51.382;0.016;2022-12-18T01:14:50;140.15;;;31.45;;
31083;SDS011;36333;51.382;0.016;2022-12-18T01:17:17;144.80;;;32.10;;
31083;SDS011;36333;51.382;0.016;2022-12-18T01:19:45;137.50;;;31.60;;
31083;SDS011;36333;51.382;0.016;2022-12-18T01:22:13;129.48;;;29.52;;
31083;SDS011;36333;51.382;0.016;2022-12-18T01:24:40;138.45;;;32.13;;
31083;SDS011;36333;51.382;0.016;2022-12-18T01:27:08;163.10;;;32.97;;
31083;SDS011;36333;51.382;0.016;2022-12-18T01:29:35;146.68;;;31.33;;
31083;SDS011;36333;51.382;0.016;2022-12-18T01:32:03;136.30;;;31.77;;
31083;SDS011;36333;51.382;0.016;2022-12-18T01:34:40;131.93;;;29.83;;
31083;SDS011;36333;51.382;0.016;2022-12-18T01:37:11;124.78;;;29.00;;
31083;SDS011;36333;51.382;0.016;2022-12-18T01:39:39;141.63;;;30.90;;
31083;SDS011;36333;51.382;0.016;2022-12-18T01:42:16;155.40;;;30.38;;
31083;SDS011;36333;51.382;0.016;2022-12-18T01:47:44;153.50;;;31.65;;
31083;SDS011;36333;51.382;0.016;2022-12-18T01:50:15;143.10;;;29.48;;
31083;SDS011;36333;51.382;0.016;2022-12-18T01:52:45;150.20;;;32.03;;
31083;SDS011;36333;51.382;0.016;2022-12-18T01:55:26;136.95;;;30.17;;
31083;SDS011;36333;51.382;0.016;2022-12-18T01:57:57;125.40;;;28.70;;
31083;SDS011;36333;51.382;0.016;2022-12-18T02:00:27;131.20;;;30.42;;
31083;SDS011;36333;51.382;0.016;2022-12-18T02:02:56;135.68;;;30.02;;
31083;SDS011;36333;51.382;0.016;2022-12-18T02:07:56;117.82;;;27.30;;
31083;SDS011;36333;51.382;0.016;2022-12-18T02:14:31;124.10;;;29.73;;
31083;SDS011;36333;51.382;0.016;2022-12-18T02:16:34;113.38;;;27.58;;
31083;SDS011;36333;51.382;0.016;2022-12-18T02:28:02;123.43;;;28.13;;
31083;SDS011;36333;51.382;0.016;2022-12-18T02:30:33;115.70;;;27.70;;
31083;SDS011;36333;51.382;0.016;2022-12-18T02:33:06;119.25;;;27.42;;
31083;SDS011;36333;51.382;0.016;2022-12-18T02:35:35;111.05;;;27.48;;
31083;SDS011;36333;51.382;0.016;2022-12-18T02:38:05;116.38;;;28.33;;
31083;SDS011;36333;51.382;0.016;2022-12-18T02:40:35;110.55;;;26.40;;
31083;SDS011;36333;51.382;0.016;2022-12-18T02:43:12;107.72;;;25.85;;
31083;SDS011;36333;51.382;0.016;2022-12-18T02:45:46;108.25;;;27.15;;
31083;SDS011;36333;51.382;0.016;2022-12-18T02:48:17;102.22;;;25.33;;
31083;SDS011;36333;51.382;0.016;2022-12-18T02:50:59;111.63;;;25.48;;
31083;SDS011;36333;51.382;0.016;2022-12-18T02:53:53;103.75;;;24.73;;
31083;SDS011;36333;51.382;0.016;2022-12-18T02:56:33;114.72;;;26.95;;
31083;SDS011;36333;51.382;0.016;2022-12-18T03:02:02;110.78;;;25.63;;
31083;SDS011;36333;51.382;0.016;2022-12-18T03:04:56;105.65;;;26.58;;
31083;SDS011;36333;51.382;0.016;2022-12-18T03:07:45;107.13;;;25.98;;
31083;SDS011;36333;51.382;0.016;2022-12-18T03:10:20;104.93;;;27.05;;
31083;SDS011;36333;51.382;0.016;2022-12-18T03:13:14;104.78;;;26.75;;
31083;SDS011;36333;51.382;0.016;2022-12-18T03:15:47;115.75;;;26.55;;
31083;SDS011;36333;51.382;0.016;2022-12-18T03:18:19;116.03;;;26.20;;
31083;SDS011;36333;51.382;0.016;2022-12-18T03:20:51;111.65;;;25.50;;
31083;SDS011;36333;51.382;0.016;2022-12-18T03:23:23;104.13;;;25.40;;
31083;SDS011;36333;51.382;0.016;2022-12-18T03:25:56;96.72;;;24.83;;
31083;SDS011;36333;51.382;0.016;2022-12-18T03:28:37;97.65;;;25.55;;
31083;SDS011;36333;51.382;0.016;2022-12-18T03:31:09;90.00;;;24.10;;
31083;SDS011;36333;51.382;0.016;2022-12-18T03:36:26;109.22;;;24.83;;
31083;SDS011;36333;51.382;0.016;2022-12-18T03:38:54;96.82;;;24.15;;
31083;SDS011;36333;51.382;0.016;2022-12-18T03:44:24;93.75;;;24.58;;
31083;SDS011;36333;51.382;0.016;2022-12-18T03:50:05;118.15;;;25.23;;
31083;SDS011;36333;51.382;0.016;2022-12-18T03:55:38;135.73;;;27.25;;
31083;SDS011;36333;51.382;0.016;2022-12-18T03:58:07;128.38;;;28.25;;
31083;SDS011;36333;51.382;0.016;2022-12-18T04:00:55;119.75;;;28.65;;
31083;SDS011;36333;51.382;0.016;2022-12-18T04:03:29;123.57;;;27.40;;
31083;SDS011;36333;51.382;0.016;2022-12-18T04:06:02;121.32;;;27.77;;
31083;SDS011;36333;51.382;0.016;2022-12-18T04:08:32;127.07;;;28.20;;
31083;SDS011;36333;51.382;0.016;2022-12-18T04:11:05;107.90;;;27.15;;
31083;SDS011;36333;51.382;0.016;2022-12-18T04:13:34;115.03;;;26.65;;
31083;SDS011;36333;51.382;0.016;2022-12-18T04:16:08;114.43;;;26.02;;
31083;SDS011;36333;51.382;0.016;2022-12-18T04:18:40;118.38;;;29.25;;
31083;SDS011;36333;51.382;0.016;2022-12-18T04:21:15;122.95;;;29.23;;
31083;SDS011;36333;51.382;0.016;2022-12-18T04:23:43;121.85;;;28.00;;
31083;SDS011;36333;51.382;0.016;2022-12-18T04:26:15;130.07;;;29.23;;
31083;SDS011;36333;51.382;0.016;2022-12-18T04:29:03;135.35;;;29.58;;
31083;SDS011;36333;51.382;0.016;2022-12-18T04:31:31;124.90;;;29.42;;
31083;SDS011;36333;51.382;0.016;2022-12-18T04:36:27;127.53;;;28.63;;
31083;SDS011;36333;51.382;0.016;2022-12-18T04:38:55;137.70;;;29.65;;
31083;SDS011;36333;51.382;0.016;2022-12-18T04:41:23;139.30;;;32.47;;
31083;SDS011;36333;51.382;0.016;2022-12-18T04:43:52;139.98;;;31.33;;
31083;SDS011;36333;51.382;0.016;2022-12-18T04:46:20;139.57;;;31.50;;
31083;SDS011;36333;51.382;0.016;2022-12-18T04:48:48;147.35;;;32.95;;
31083;SDS011;36333;51.382;0.016;2022-12-18T04:51:15;140.63;;;33.80;;
31083;SDS011;36333;51.382;0.016;2022-12-18T04:53:50;143.82;;;32.95;;
31083;SDS011;36333;51.382;0.016;2022-12-18T04:56:18;139.45;;;32.25;;
31083;SDS011;36333;51.382;0.016;2022-12-18T04:58:45;168.93;;;35.88;;
31083;SDS011;36333;51.382;0.016;2022-12-18T05:01:16;144.77;;;34.40;;
31083;SDS011;36333;51.382;0.016;2022-12-18T05:03:45;139.50;;;33.67;;
31083;SDS011;36333;51.382;0.016;2022-12-18T05:06:13;130.48;;;34.28;;
31083;SDS011;36333;51.382;0.016;2022-12-18T05:08:43;144.15;;;33.50;;
31083;SDS011;36333;51.382;0.016;2022-12-18T05:11:13;156.77;;;35.22;;
31083;SDS011;36333;51.382;0.016;2022-12-18T05:13:44;140.88;;;33.17;;
31083;SDS011;36333;51.382;0.016;2022-12-18T05:16:13;130.32;;;35.08;;
31083;SDS011;36333;51.382;0.016;2022-12-18T05:18:41;137.68;;;34.72;;
31083;SDS011;36333;51.382;0.016;2022-12-18T05:21:09;132.88;;;33.83;;
31083;SDS011;36333;51.382;0.016;2022-12-18T05:23:37;143.80;;;36.10;;
31083;SDS011;36333;51.382;0.016;2022-12-18T05:26:05;144.63;;;34.33;;
31083;SDS011;36333;51.382;0.016;2022-12-18T05:28:35;134.18;;;33.83;;
31083;SDS011;36333;51.382;0.016;2022-12-18T05:31:03;132.13;;;34.00;;
31083;SDS011;36333;51.382;0.016;2022-12-18T05:33:32;144.38;;;34.72;;
31083;SDS011;36333;51.382;0.016;2022-12-18T05:36:02;138.77;;;33.65;;
31083;SDS011;36333;51.382;0.016;2022-12-18T05:38:32;138.25;;;35.28;;
31083;SDS011;36333;51.382;0.016;2022-12-18T05:41:00;141.68;;;35.80;;
31083;SDS011;36333;51.382;0.016;2022-12-18T05:43:29;147.38;;;36.72;;
31083;SDS011;36333;51.382;0.016;2022-12-18T05:45:56;148.48;;;36.75;;
31083;SDS011;36333;51.382;0.016;2022-12-18T05:48:24;136.05;;;36.50;;
31083;SDS011;36333;51.382;0.016;2022-12-18T05:50:52;137.98;;;35.92;;
31083;SDS011;36333;51.382;0.016;2022-12-18T05:53:20;135.13;;;34.60;;
31083;SDS011;36333;51.382;0.016;2022-12-18T05:55:47;136.82;;;34.90;;
31083;SDS011;36333;51.382;0.016;2022-12-18T05:58:15;141.15;;;36.83;;
31083;SDS011;36333;51.382;0.016;2022-12-18T06:00:45;141.90;;;37.35;;
31083;SDS011;36333;51.382;0.016;2022-12-18T06:03:15;143.13;;;36.92;;
31083;SDS011;36333;51.382;0.016;2022-12-18T06:05:44;125.57;;;35.42;;
31083;SDS011;36333;51.382;0.016;2022-12-18T06:08:12;126.50;;;34.90;;
31083;SDS011;36333;51.382;0.016;2022-12-18T06:13:08;131.88;;;34.80;;
31083;SDS011;36333;51.382;0.016;2022-12-18T06:15:36;111.88;;;32.95;;
31083;SDS011;36333;51.382;0.016;2022-12-18T06:18:04;110.97;;;32.75;;
31083;SDS011;36333;51.382;0.016;2022-12-18T06:20:32;127.38;;;33.88;;
31083;SDS011;36333;51.382;0.016;2022-12-18T06:23:00;116.53;;;34.10;;
31083;SDS011;36333;51.382;0.016;2022-12-18T06:25:29;118.20;;;34.63;;
31083;SDS011;36333;51.382;0.016;2022-12-18T06:27:57;124.43;;;34.08;;
31083;SDS011;36333;51.382;0.016;2022-12-18T06:30:25;121.50;;;32.35;;
31083;SDS011;36333;51.382;0.016;2022-12-18T06:32:53;115.60;;;33.33;;
31083;SDS011;36333;51.382;0.016;2022-12-18T06:35:23;111.55;;;32.63;;
31083;SDS011;36333;51.382;0.016;2022-12-18T06:37:50;113.78;;;32.08;;
31083;SDS011;36333;51.382;0.016;2022-12-18T06:40:18;98.75;;;29.55;;
31083;SDS011;36333;51.382;0.016;2022-12-18T06:42:46;97.40;;;28.40;;
31083;SDS011;36333;51.382;0.016;2022-12-18T06:45:13;107.00;;;31.50;;
31083;SDS011;36333;51.382;0.016;2022-12-18T06:47:42;104.88;;;30.98;;
31083;SDS011;36333;51.382;0.016;2022-12-18T06:50:10;104.80;;;31.13;;
31083;SDS011;36333;51.382;0.016;2022-12-18T06:52:39;107.60;;;30.42;;
31083;SDS011;36333;51.382;0.016;2022-12-18T06:55:10;93.82;;;28.75;;
31083;SDS011;36333;51.382;0.016;2022-12-18T06:57:38;104.55;;;30.38;;
31083;SDS011;36333;51.382;0.016;2022-12-18T07:00:06;95.03;;;27.95;;
31083;SDS011;36333;51.382;0.016;2022-12-18T07:02:34;99.25;;;30.85;;
31083;SDS011;36333;51.382;0.016;2022-12-18T07:05:02;100.85;;;28.85;;
31083;SDS011;36333;51.382;0.016;2022-12-18T07:07:36;101.90;;;28.83;;
31083;SDS011;36333;51.382;0.016;2022-12-18T07:10:04;97.68;;;29.75;;
31083;SDS011;36333;51.382;0.016;2022-12-18T07:12:32;94.72;;;28.02;;
31083;SDS011;36333;51.382;0.016;2022-12-18T07:15:00;92.53;;;29.17;;
31083;SDS011;36333;51.382;0.016;2022-12-18T07:17:27;91.18;;;29.00;;
31083;SDS011;36333;51.382;0.016;2022-12-18T07:19:56;103.30;;;29.27;;
31083;SDS011;36333;51.382;0.016;2022-12-18T07:22:24;98.32;;;29.30;;
31083;SDS011;36333;51.382;0.016;2022-12-18T07:24:53;91.50;;;28.83;;
31083;SDS011;36333;51.382;0.016;2022-12-18T07:27:20;101.05;;;30.58;;
31083;SDS011;36333;51.382;0.016;2022-12-18T07:29:49;88.43;;;28.00;;
31083;SDS011;36333;51.382;0.016;2022-12-18T07:32:22;88.03;;;28.95;;
31083;SDS011;36333;51.382;0.016;2022-12-18T07:34:49;102.05;;;29.25;;
31083;SDS011;36333;51.382;0.016;2022-12-18T07:37:17;95.65;;;29.23;;
31083;SDS011;36333;51.382;0.016;2022-12-18T07:39:44;85.78;;;29.33;;
31083;SDS011;36333;51.382;0.016;2022-12-18T07:42:15;96.00;;;29.15;;
31083;SDS011;36333;51.382;0.016;2022-12-18T07:44:59;91.55;;;29.40;;
31083;SDS011;36333;51.382;0.016;2022-12-18T07:47:30;89.93;;;30.80;;
31083;SDS011;36333;51.382;0.016;2022-12-18T07:50:30;91.85;;;28.23;;
31083;SDS011;36333;51.382;0.016;2022-12-18T07:52:57;102.28;;;28.85;;
31083;SDS011;36333;51.382;0.016;2022-12-18T07:55:25;93.80;;;30.60;;
31083;SDS011;36333;51.382;0.016;2022-12-18T07:57:53;91.85;;;28.60;;
31083;SDS011;36333;51.382;0.016;2022-12-18T08:00:26;89.57;;;29.20;;
31083;SDS011;36333;51.382;0.016;2022-12-18T08:02:54;98.07;;;30.90;;
31083;SDS011;36333;51.382;0.016;2022-12-18T08:05:25;102.75;;;31.20;;
31083;SDS011;36333;51.382;0.016;2022-12-18T08:10:20;85.40;;;25.80;;
31083;SDS011;36333;51.382;0.016;2022-12-18T08:12:52;91.28;;;29.42;;
31083;SDS011;36333;51.382;0.016;2022-12-18T08:15:19;95.88;;;29.55;;
31083;SDS011;36333;51.382;0.016;2022-12-18T08:17:47;99.55;;;31.73;;
31083;SDS011;36333;51.382;0.016;2022-12-18T08:20:15;93.03;;;31.30;;
31083;SDS011;36333;51.382;0.016;2022-12-18T08:22:44;95.30;;;31.05;;
31083;SDS011;36333;51.382;0.016;2022-12-18T08:25:12;94.30;;;31.02;;
31083;SDS011;36333;51.382;0.016;2022-12-18T08:27:42;99.60;;;32.20;;
31083;SDS011;36333;51.382;0.016;2022-12-18T08:30:10;101.20;;;32.55;;
31083;SDS011;36333;51.382;0.016;2022-12-18T08:32:38;98.63;;;32.95;;
31083;SDS011;36333;51.382;0.016;2022-12-18T08:35:07;89.22;;;32.35;;
31083;SDS011;36333;51.382;0.016;2022-12-18T08:37:36;87.47;;;31.35;;
31083;SDS011;36333;51.382;0.016;2022-12-18T08:40:08;99.25;;;32.95;;
31083;SDS011;36333;51.382;0.016;2022-12-18T08:42:40;92.65;;;32.97;;
31083;SDS011;36333;51.382;0.016;2022-12-18T08:47:55;98.78;;;31.15;;
31083;SDS011;36333;51.382;0.016;2022-12-18T08:50:23;95.68;;;31.58;;
31083;SDS011;36333;51.382;0.016;2022-12-18T08:52:50;100.75;;;32.40;;
31083;SDS011;36333;51.382;0.016;2022-12-18T08:55:18;95.35;;;32.92;;
31083;SDS011;36333;51.382;0.016;2022-12-18T08:57:50;90.57;;;32.70;;
31083;SDS011;36333;51.382;0.016;2022-12-18T09:00:17;96.00;;;32.58;;
31083;SDS011;36333;51.382;0.016;2022-12-18T09:02:45;100.10;;;33.58;;
31083;SDS011;36333;51.382;0.016;2022-12-18T09:05:16;103.15;;;33.33;;
31083;SDS011;36333;51.382;0.016;2022-12-18T09:07:43;95.35;;;32.65;;
31083;SDS011;36333;51.382;0.016;2022-12-18T09:12:39;95.13;;;31.98;;
31083;SDS011;36333;51.382;0.016;2022-12-18T09:15:09;85.72;;;31.92;;
31083;SDS011;36333;51.382;0.016;2022-12-18T09:17:40;93.00;;;33.50;;
31083;SDS011;36333;51.382;0.016;2022-12-18T09:20:08;88.30;;;32.53;;
31083;SDS011;36333;51.382;0.016;2022-12-18T09:22:38;91.57;;;33.38;;
31083;SDS011;36333;51.382;0.016;2022-12-18T09:25:07;93.82;;;33.83;;
31083;SDS011;36333;51.382;0.016;2022-12-18T09:27:35;97.35;;;33.88;;
31083;SDS011;36333;51.382;0.016;2022-12-18T09:30:07;97.05;;;34.53;;
31083;SDS011;36333;51.382;0.016;2022-12-18T09:32:35;90.57;;;32.95;;
31083;SDS011;36333;51.382;0.016;2022-12-18T09:35:05;89.45;;;33.40;;
31083;SDS011;36333;51.382;0.016;2022-12-18T09:37:36;96.43;;;32.63;;
31083;SDS011;36333;51.382;0.016;2022-12-18T09:40:04;90.07;;;32.58;;
31083;SDS011;36333;51.382;0.016;2022-12-18T09:44:59;83.45;;;31.15;;
31083;SDS011;36333;51.382;0.016;2022-12-18T09:47:33;89.45;;;31.88;;
31083;SDS011;36333;51.382;0.016;2022-12-18T09:50:06;94.97;;;34.20;;
31083;SDS011;36333;51.382;0.016;2022-12-18T09:52:57;87.15;;;33.80;;
31083;SDS011;36333;51.382;0.016;2022-12-18T09:55:42;95.22;;;33.65;;
31083;SDS011;36333;51.382;0.016;2022-12-18T09:58:16;90.00;;;33.08;;
31083;SDS011;36333;51.382;0.016;2022-12-18T10:00:50;83.07;;;31.10;;
31083;SDS011;36333;51.382;0.016;2022-12-18T10:03:44;84.28;;;32.30;;
31083;SDS011;36333;51.382;0.016;2022-12-18T10:06:19;91.10;;;31.42;;
31083;SDS011;36333;51.382;0.016;2022-12-18T10:14:51;81.40;;;29.70;;
31083;SDS011;36333;51.382;0.016;2022-12-18T10:20:43;75.72;;;28.63;;
31083;SDS011;36333;51.382;0.016;2022-12-18T10:26:05;78.38;;;27.80;;
31083;SDS011;36333;51.382;0.016;2022-12-18T10:28:36;67.40;;;28.30;;
31083;SDS011;36333;51.382;0.016;2022-12-18T10:31:06;68.75;;;27.52;;
31083;SDS011;36333;51.382;0.016;2022-12-18T10:33:40;68.32;;;27.10;;
31083;SDS011;36333;51.382;0.016;2022-12-18T10:38:35;68.10;;;25.90;;
31083;SDS011;36333;51.382;0.016;2022-12-18T10:41:05;73.00;;;27.33;;
31083;SDS011;36333;51.382;0.016;2022-12-18T10:44:10;65.95;;;26.08;;
31083;SDS011;36333;51.382;0.016;2022-12-18T10:46:51;63.58;;;25.30;;
31083;SDS011;36333;51.382;0.016;2022-12-18T10:49:24;61.67;;;25.13;;
31083;SDS011;36333;51.382;0.016;2022-12-18T10:52:04;62.17;;;24.70;;
31083;SDS011;36333;51.382;0.016;2022-12-18T10:54:49;61.45;;;24.67;;
31083;SDS011;36333;51.382;0.016;2022-12-18T10:57:35;63.97;;;25.35;;
31083;SDS011;36333;51.382;0.016;2022-12-18T11:00:20;58.53;;;24.55;;
31083;SDS011;36333;51.382;0.016;2022-12-18T11:02:58;59.22;;;24.02;;
31083;SDS011;36333;51.382;0.016;2022-12-18T11:07:58;53.75;;;24.08;;
31083;SDS011;36333;51.382;0.016;2022-12-18T11:10:32;60.63;;;25.13;;
31083;SDS011;36333;51.382;0.016;2022-12-18T11:16:19;57.58;;;23.85;;
31083;SDS011;36333;51.382;0.016;2022-12-18T11:18:52;62.30;;;25.63;;
31083;SDS011;36333;51.382;0.016;2022-12-18T11:25:32;54.08;;;24.17;;
31083;SDS011;36333;51.382;0.016;2022-12-18T11:37:21;63.67;;;25.45;;
31083;SDS011;36333;51.382;0.016;2022-12-18T11:40:23;69.65;;;27.35;;
31083;SDS011;36333;51.382;0.016;2022-12-18T11:43:38;63.10;;;27.30;;
31083;SDS011;36333;51.382;0.016;2022-12-18T11:46:42;61.17;;;26.60;;
31083;SDS011;36333;51.382;0.016;2022-12-18T11:53:57;64.93;;;27.40;;
31083;SDS011;36333;51.382;0.016;2022-12-18T11:56:57;69.07;;;27.50;;
31083;SDS011;36333;51.382;0.016;2022-12-18T12:06:06;74.00;;;30.77;;
31083;SDS011;36333;51.382;0.016;2022-12-18T12:13:28;78.63;;;29.60;;
31083;SDS011;36333;51.382;0.016;2022-12-18T12:36:03;78.15;;;29.60;;
31083;SDS011;36333;51.382;0.016;2022-12-18T12:38:41;76.35;;;30.65;;
31083;SDS011;36333;51.382;0.016;2022-12-18T12:41:19;77.18;;;30.75;;
31083;SDS011;36333;51.382;0.016;2022-12-18T12:47:13;74.50;;;30.98;;
31083;SDS011;36333;51.382;0.016;2022-12-18T12:49:51;82.07;;;30.65;;
31083;SDS011;36333;51.382;0.016;2022-12-18T12:52:27;78.72;;;32.60;;
31083;SDS011;36333;51.382;0.016;2022-12-18T12:55:02;82.55;;;33.35;;
31083;SDS011;36333;51.382;0.016;2022-12-18T12:58:07;82.57;;;33.17;;
31083;SDS011;36333;51.382;0.016;2022-12-18T13:00:40;80.43;;;31.73;;
31083;SDS011;36333;51.382;0.016;2022-12-18T13:08:08;72.95;;;30.10;;
31083;SDS011;36333;51.382;0.016;2022-12-18T13:10:49;71.85;;;30.55;;
31083;SDS011;36333;51.382;0.016;2022-12-18T13:13:48;73.05;;;30.30;;
31083;SDS011;36333;51.382;0.016;2022-12-18T13:16:19;74.85;;;30.25;;
31083;SDS011;36333;51.382;0.016;2022-12-18T13:18:52;70.07;;;30.23;;
31083;SDS011;36333;51.382;0.016;2022-12-18T13:23:55;80.13;;;31.23;;
31083;SDS011;36333;51.382;0.016;2022-12-18T13:28:56;73.13;;;29.73;;
31083;SDS011;36333;51.382;0.016;2022-12-18T13:31:57;75.88;;;29.92;;
31083;SDS011;36333;51.382;0.016;2022-12-18T13:37:57;58.95;;;22.60;;
31083;SDS011;36333;51.382;0.016;2022-12-18T13:48:56;60.80;;;25.45;;
31083;SDS011;36333;51.382;0.016;2022-12-18T13:51:30;64.38;;;26.17;;
31083;SDS011;36333;51.382;0.016;2022-12-18T13:54:00;63.03;;;25.83;;
31083;SDS011;36333;51.382;0.016;2022-12-18T13:56:33;59.13;;;24.92;;
31083;SDS011;36333;51.382;0.016;2022-12-18T14:04:32;65.53;;;26.00;;
31083;SDS011;36333;51.382;0.016;2022-12-18T14:07:10;64.75;;;26.17;;
31083;SDS011;36333;51.382;0.016;2022-12-18T14:09:43;63.28;;;25.88;;
31083;SDS011;36333;51.382;0.016;2022-12-18T14:12:17;58.65;;;25.13;;
31083;SDS011;36333;51.382;0.016;2022-12-18T14:17:55;53.35;;;24.05;;
31083;SDS011;36333;51.382;0.016;2022-12-18T14:20:27;58.80;;;24.70;;
31083;SDS011;36333;51.382;0.016;2022-12-18T14:22:58;55.90;;;23.45;;
31083;SDS011;36333;51.382;0.016;2022-12-18T14:25:28;58.38;;;24.88;;
31083;SDS011;36333;51.382;0.016;2022-12-18T14:30:37;57.28;;;23.58;;
31083;SDS011;36333;51.382;0.016;2022-12-18T14:33:17;58.90;;;23.45;;
31083;SDS011;36333;51.382;0.016;2022-12-18T14:35:53;52.95;;;22.23;;
31083;SDS011;36333;51.382;0.016;2022-12-18T14:38:25;56.90;;;24.27;;
31083;SDS011;36333;51.382;0.016;2022-12-18T14:40:57;56.90;;;23.15;;
31083;SDS011;36333;51.382;0.016;2022-12-18T14:43:27;54.53;;;23.90;;
31083;SDS011;36333;51.382;0.016;2022-12-18T14:45:56;61.45;;;22.98;;
31083;SDS011;36333;51.382;0.016;2022-12-18T14:51:12;52.70;;;22.80;;
31083;SDS011;36333;51.382;0.016;2022-12-18T14:54:03;54.28;;;21.63;;
31083;SDS011;36333;51.382;0.016;2022-12-18T14:56:35;54.20;;;22.17;;
31083;SDS011;36333;51.382;0.016;2022-12-18T14:59:13;50.80;;;22.15;;
31083;SDS011;36333;51.382;0.016;2022-12-18T15:04:46;54.05;;;22.90;;
31083;SDS011;36333;51.382;0.016;2022-12-18T15:07:21;52.80;;;21.88;;
31083;SDS011;36333;51.382;0.016;2022-12-18T15:18:15;53.92;;;22.63;;
31083;SDS011;36333;51.382;0.016;2022-12-18T15:23:22;59.80;;;22.15;;
31083;SDS011;36333;51.382;0.016;2022-12-18T15:34:30;48.03;;;20.88;;
31083;SDS011;36333;51.382;0.016;2022-12-18T15:36:34;59.08;;;20.27;;
31083;SDS011;36333;51.382;0.016;2022-12-18T15:39:03;62.40;;;23.13;;
31083;SDS011;36333;51.382;0.016;2022-12-18T15:41:34;52.95;;;21.92;;
31083;SDS011;36333;51.382;0.016;2022-12-18T15:44:03;55.22;;;21.83;;
31083;SDS011;36333;51.382;0.016;2022-12-18T15:46:50;56.55;;;22.88;;
31083;SDS011;36333;51.382;0.016;2022-12-18T15:49:17;60.00;;;23.27;;
31083;SDS011;36333;51.382;0.016;2022-12-18T15:51:45;46.88;;;18.75;;
31083;SDS011;36333;51.382;0.016;2022-12-18T15:54:19;53.70;;;21.27;;
31083;SDS011;36333;51.382;0.016;2022-12-18T15:57:26;51.40;;;20.63;;
31083;SDS011;36333;51.382;0.016;2022-12-18T15:59:54;43.22;;;20.33;;
31083;SDS011;36333;51.382;0.016;2022-12-18T16:02:26;43.30;;;19.95;;
31083;SDS011;36333;51.382;0.016;2022-12-18T16:04:55;52.67;;;19.73;;
31083;SDS011;36333;51.382;0.016;2022-12-18T16:07:23;50.20;;;19.85;;
31083;SDS011;36333;51.382;0.016;2022-12-18T16:09:56;49.50;;;19.50;;
31083;SDS011;36333;51.382;0.016;2022-12-18T16:12:26;42.45;;;19.00;;
31083;SDS011;36333;51.382;0.016;2022-12-18T16:14:53;41.20;;;17.80;;
31083;SDS011;36333;51.382;0.016;2022-12-18T16:17:21;40.72;;;16.92;;
31083;SDS011;36333;51.382;0.016;2022-12-18T16:19:48;38.00;;;14.88;;
31083;SDS011;36333;51.382;0.016;2022-12-18T16:24:48;31.73;;;14.65;;
31083;SDS011;36333;51.382;0.016;2022-12-18T16:27:19;27.80;;;13.02;;
31083;SDS011;36333;51.382;0.016;2022-12-18T16:29:47;32.03;;;13.80;;
31083;SDS011;36333;51.382;0.016;2022-12-18T16:32:16;30.65;;;13.48;;
31083;SDS011;36333;51.382;0.016;2022-12-18T16:34:46;25.70;;;11.63;;
31083;SDS011;36333;51.382;0.016;2022-12-18T16:37:16;27.85;;;12.88;;
31083;SDS011;36333;51.382;0.016;2022-12-18T16:39:44;29.92;;;12.80;;
31083;SDS011;36333;51.382;0.016;2022-12-18T16:42:15;23.80;;;12.07;;
31083;SDS011;36333;51.382;0.016;2022-12-18T16:44:46;25.15;;;11.95;;
31083;SDS011;36333;51.382;0.016;2022-12-18T16:47:15;24.45;;;11.98;;
31083;SDS011;36333;51.382;0.016;2022-12-18T16:49:43;25.92;;;11.93;;
31083;SDS011;36333;51.382;0.016;2022-12-18T16:52:12;28.05;;;11.25;;
31083;SDS011;36333;51.382;0.016;2022-12-18T16:57:08;26.13;;;11.60;;
31083;SDS011;36333;51.382;0.016;2022-12-18T16:59:40;21.05;;;10.93;;
31083;SDS011;36333;51.382;0.016;2022-12-18T17:02:18;22.23;;;10.68;;
31083;SDS011;36333;51.382;0.016;2022-12-18T17:04:55;20.25;;;10.80;;
31083;SDS011;36333;51.382;0.016;2022-12-18T17:07:24;24.05;;;12.25;;
31083;SDS011;36333;51.382;0.016;2022-12-18T17:09:53;24.98;;;12.38;;
31083;SDS011;36333;51.382;0.016;2022-12-18T17:12:21;25.48;;;11.82;;
31083;SDS011;36333;51.382;0.016;2022-12-18T17:14:49;23.50;;;12.43;;
31083;SDS011;36333;51.382;0.016;2022-12-18T17:17:17;26.52;;;13.52;;
31083;SDS011;36333;51.382;0.016;2022-12-18T17:19:47;25.88;;;12.93;;
31083;SDS011;36333;51.382;0.016;2022-12-18T17:22:15;28.80;;;14.13;;
31083;SDS011;36333;51.382;0.016;2022-12-18T17:24:46;27.25;;;12.95;;
31083;SDS011;36333;51.382;0.016;2022-12-18T17:27:13;27.02;;;12.68;;
31083;SDS011;36333;51.382;0.016;2022-12-18T17:29:44;28.73;;;13.43;;
31083;SDS011;36333;51.382;0.016;2022-12-18T17:32:15;27.75;;;13.40;;
31083;SDS011;36333;51.382;0.016;2022-12-18T17:34:45;24.83;;;12.60;;
31083;SDS011;36333;51.382;0.016;2022-12-18T17:37:15;28.77;;;12.70;;
31083;SDS011;36333;51.382;0.016;2022-12-18T17:39:43;21.90;;;11.93;;
31083;SDS011;36333;51.382;0.016;2022-12-18T17:42:10;24.85;;;12.02;;
31083;SDS011;36333;51.382;0.016;2022-12-18T17:44:42;22.30;;;11.30;;
31083;SDS011;36333;51.382;0.016;2022-12-18T17:47:11;23.27;;;11.95;;
31083;SDS011;36333;51.382;0.016;2022-12-18T17:49:39;20.95;;;11.45;;